createdAt,value
2022-08-31T00:00:43.367Z,100978.91
2022-08-31T00:03:30.413Z,100975.11
2022-08-31T00:06:02.178Z,100973.74
2022-08-31T00:08:31.629Z,100973.99
2022-08-31T00:11:01.023Z,100972.91
2022-08-31T00:13:30.323Z,100971.42
2022-08-31T00:15:58.975Z,100965.84
2022-08-31T00:18:27.588Z,100971.09
2022-08-31T00:20:56.089Z,100968.07
2022-08-31T00:23:26.223Z,100968.29
2022-08-31T00:25:54.983Z,100971.40
2022-08-31T00:28:23.592Z,100969.31
2022-08-31T00:30:52.273Z,100965.84
2022-08-31T00:33:20.861Z,100967.89
2022-08-31T00:35:49.777Z,100964.98
2022-08-31T00:38:18.400Z,100962.00
2022-08-31T00:40:48.002Z,100965.36
2022-08-31T00:43:45.439Z,100964.20
2022-08-31T00:46:18.622Z,100961.65
2022-08-31T00:48:57.933Z,100956.39
2022-08-31T00:51:29.064Z,100958.31
2022-08-31T00:53:58.697Z,100959.11
2022-08-31T00:56:28.190Z,100958.94
2022-08-31T00:58:57.185Z,100961.44
2022-08-31T01:01:28.199Z,100960.88
2022-08-31T01:03:58.155Z,100960.93
2022-08-31T01:06:27.190Z,100963.14
2022-08-31T01:08:59.715Z,100968.27
2022-08-31T01:11:29.284Z,100966.50
2022-08-31T01:13:58.502Z,100973.35
2022-08-31T01:16:33.609Z,100976.45
2022-08-31T01:19:06.045Z,100977.30
2022-08-31T01:22:15.495Z,100976.86
2022-08-31T01:24:47.381Z,100978.34
2022-08-31T01:27:20.343Z,100985.98
2022-08-31T01:29:48.957Z,100988.07
2022-08-31T01:32:17.588Z,100985.95
2022-08-31T01:34:46.375Z,100985.61
2022-08-31T01:37:15.367Z,100985.96
2022-08-31T01:39:44.362Z,100986.18
2022-08-31T01:42:13.101Z,100985.34
2022-08-31T01:44:41.633Z,100986.48
2022-08-31T01:47:10.493Z,100993.49
2022-08-31T01:49:39.553Z,100993.24
2022-08-31T01:52:08.309Z,100992.12
2022-08-31T01:54:37.214Z,100991.67
2022-08-31T01:57:07.017Z,100993.32
2022-08-31T01:59:54.439Z,100993.34
2022-08-31T02:02:43.266Z,100998.56
2022-08-31T02:05:14.772Z,101000.52
2022-08-31T02:07:47.026Z,101000.44
2022-08-31T02:10:15.966Z,101001.21
2022-08-31T02:12:44.828Z,101000.59
2022-08-31T02:15:13.757Z,101000.33
2022-08-31T02:17:42.690Z,101005.64
2022-08-31T02:20:15.042Z,101002.70
2022-08-31T02:22:44.776Z,101006.69
2022-08-31T02:25:13.401Z,101006.48
2022-08-31T02:27:42.062Z,101012.64
2022-08-31T02:30:15.343Z,101013.09
2022-08-31T02:32:44.237Z,101018.86
2022-08-31T02:35:13.010Z,101020.02
2022-08-31T02:37:41.740Z,101023.69
2022-08-31T02:40:12.092Z,101025.89
2022-08-31T02:42:52.755Z,101023.89
2022-08-31T02:45:25.821Z,101025.06
2022-08-31T02:47:57.788Z,101024.85
2022-08-31T02:50:44.664Z,101023.92
2022-08-31T02:53:15.607Z,101022.95
2022-08-31T02:55:45.723Z,101024.84
2022-08-31T02:58:14.716Z,101027.29
2022-08-31T03:00:48.752Z,101032.95
2022-08-31T03:03:18.867Z,101032.58
2022-08-31T03:05:47.947Z,101027.20
2022-08-31T03:08:18.645Z,101026.45
2022-08-31T03:10:49.204Z,101025.02
2022-08-31T03:13:19.240Z,101023.17
2022-08-31T03:15:48.571Z,101024.20
2022-08-31T03:18:18.445Z,101021.58
2022-08-31T03:20:47.062Z,101016.16
2022-08-31T03:23:16.024Z,101015.55
2022-08-31T03:25:45.014Z,101017.54
2022-08-31T03:28:15.032Z,101017.23
2022-08-31T03:30:47.616Z,101018.23
2022-08-31T03:33:17.188Z,101022.73
2022-08-31T03:35:46.520Z,101025.67
2022-08-31T03:38:17.237Z,101025.54
2022-08-31T03:40:47.305Z,101026.34
2022-08-31T03:43:16.486Z,101024.02
2022-08-31T03:45:45.467Z,101024.71
2022-08-31T03:48:13.933Z,101025.08
2022-08-31T03:50:45.088Z,101027.52
2022-08-31T03:53:22.962Z,101027.75
2022-08-31T03:56:02.228Z,101031.46
2022-08-31T03:58:33.179Z,101029.85
2022-08-31T04:01:02.875Z,101032.06
2022-08-31T04:04:04.233Z,101034.86
2022-08-31T04:06:53.499Z,101037.59
2022-08-31T04:09:40.927Z,101034.08
2022-08-31T04:12:42.329Z,101031.98
2022-08-31T04:15:16.606Z,101031.11
2022-08-31T04:17:48.155Z,101029.13
2022-08-31T04:20:47.863Z,101032.30
2022-08-31T04:23:16.818Z,101034.41
2022-08-31T04:25:52.354Z,101040.38
2022-08-31T04:28:21.398Z,101039.33
2022-08-31T04:30:50.860Z,101039.33
2022-08-31T04:33:20.022Z,101040.13
2022-08-31T04:35:49.096Z,101036.77
2022-08-31T04:38:18.279Z,101037.88
2022-08-31T04:40:47.602Z,101041.86
2022-08-31T04:43:16.665Z,101040.10
2022-08-31T04:45:46.359Z,101040.36
2022-08-31T04:48:15.825Z,101034.80
2022-08-31T04:50:44.765Z,101034.46
2022-08-31T04:53:13.808Z,101029.05
2022-08-31T04:55:44.019Z,101022.38
2022-08-31T04:58:14.579Z,101022.95
2022-08-31T05:00:44.524Z,101020.79
2022-08-31T05:03:42.440Z,101022.77
2022-08-31T05:06:19.489Z,101018.90
2022-08-31T05:08:54.573Z,101017.27
2022-08-31T05:11:25.199Z,101017.14
2022-08-31T05:13:56.954Z,101016.39
2022-08-31T05:16:25.934Z,101017.61
2022-08-31T05:18:55.341Z,101015.27
2022-08-31T05:21:34.923Z,101014.40
2022-08-31T05:24:20.778Z,101014.14
2022-08-31T05:26:53.553Z,101014.18
2022-08-31T05:29:25.006Z,101012.67
2022-08-31T05:32:01.272Z,101008.81
2022-08-31T05:34:30.061Z,101010.67
2022-08-31T05:36:58.880Z,101014.19
2022-08-31T05:39:32.494Z,101015.19
2022-08-31T05:42:01.343Z,101015.38
2022-08-31T05:44:30.033Z,101015.36
2022-08-31T05:47:03.515Z,101015.04
2022-08-31T05:49:34.088Z,101015.60
2022-08-31T05:52:05.583Z,101012.50
2022-08-31T05:54:37.027Z,101011.96
2022-08-31T05:57:07.463Z,101016.65
2022-08-31T05:59:36.253Z,101012.13
2022-08-31T06:02:05.535Z,101013.75
2022-08-31T06:04:35.705Z,101016.42
2022-08-31T06:07:04.387Z,101017.16
2022-08-31T06:09:47.026Z,101018.34
2022-08-31T06:12:20.434Z,101018.48
2022-08-31T06:14:53.245Z,101014.96
2022-08-31T06:17:22.280Z,101016.21
2022-08-31T06:19:51.888Z,101017.60
2022-08-31T06:22:21.195Z,101015.28
2022-08-31T06:24:51.034Z,101017.07
2022-08-31T06:27:21.736Z,101020.44
2022-08-31T06:29:51.861Z,101022.18
2022-08-31T06:32:21.583Z,101022.21
2022-08-31T06:34:56.806Z,101022.42
2022-08-31T06:37:57.748Z,101020.60
2022-08-31T06:40:46.414Z,101020.05
2022-08-31T06:43:33.425Z,101020.70
2022-08-31T06:46:12.776Z,101022.11
2022-08-31T06:49:04.899Z,101022.66
2022-08-31T06:51:38.645Z,101021.00
2022-08-31T06:57:17.471Z,101023.17
2022-08-31T07:00:08.796Z,101018.27
2022-08-31T07:02:57.441Z,101018.18
2022-08-31T07:05:27.564Z,101020.55
2022-08-31T07:07:56.742Z,101020.77
2022-08-31T07:10:25.534Z,101022.02
2022-08-31T07:12:54.219Z,101022.24
2022-08-31T07:15:23.518Z,101020.02
2022-08-31T07:17:52.715Z,101019.61
2022-08-31T07:20:22.021Z,101017.06
2022-08-31T07:22:51.216Z,101016.23
2022-08-31T07:25:40.382Z,101011.25
2022-08-31T07:28:11.567Z,101010.52
2022-08-31T07:30:42.706Z,101007.81
2022-08-31T07:33:15.143Z,101007.25
2022-08-31T07:35:49.371Z,101005.36
2022-08-31T07:38:45.805Z,101007.08
2022-08-31T07:41:34.355Z,101011.15
2022-08-31T07:44:03.867Z,101011.83
2022-08-31T07:46:33.515Z,101013.49
2022-08-31T07:49:09.184Z,101013.27
2022-08-31T07:51:53.986Z,101014.30
2022-08-31T07:54:41.553Z,101017.81
2022-08-31T07:57:26.046Z,101016.71
2022-08-31T08:00:09.451Z,101015.88
2022-08-31T08:02:53.324Z,101015.97
2022-08-31T08:05:28.736Z,101016.42
2022-08-31T08:08:23.235Z,101011.50
2022-08-31T08:11:05.995Z,101009.16
2022-08-31T08:13:36.318Z,101013.73
2022-08-31T08:16:11.832Z,101017.16
2022-08-31T08:18:49.678Z,101016.39
2022-08-31T08:21:22.658Z,101018.89
2022-08-31T08:23:52.672Z,101016.96
2022-08-31T08:26:54.114Z,101009.70
2022-08-31T08:29:42.857Z,101011.60
2022-08-31T08:32:17.636Z,101006.89
2022-08-31T08:34:46.941Z,101001.09
2022-08-31T08:37:16.319Z,100995.29
2022-08-31T08:39:46.576Z,100988.56
2022-08-31T08:42:23.253Z,100983.16
2022-08-31T08:44:52.206Z,100977.83
2022-08-31T08:47:37.494Z,100964.95
2022-08-31T08:50:09.545Z,100956.52
2022-08-31T08:52:44.422Z,100950.38
2022-08-31T08:55:17.567Z,100944.34
2022-08-31T08:57:52.567Z,100942.31
2022-08-31T09:00:28.787Z,100943.69
2022-08-31T09:03:23.663Z,100940.38
2022-08-31T09:06:45.946Z,100938.71
2022-08-31T09:09:22.895Z,100928.91
2022-08-31T09:12:25.163Z,100927.58
2022-08-31T09:15:28.769Z,100927.16
2022-08-31T09:18:07.492Z,100935.34
2022-08-31T09:20:36.539Z,100949.57
2022-08-31T09:23:08.348Z,100954.48
2022-08-31T09:25:52.631Z,100960.42
2022-08-31T09:28:43.853Z,100957.15
2022-08-31T09:31:34.946Z,100958.05
2022-08-31T09:34:08.742Z,100960.51
2022-08-31T09:36:41.448Z,100962.39
2022-08-31T09:39:33.071Z,100963.23
2022-08-31T09:42:20.576Z,100961.98
2022-08-31T09:44:51.408Z,100961.09
2022-08-31T09:47:52.649Z,100954.77
2022-08-31T09:50:36.302Z,100953.74
2022-08-31T09:53:42.259Z,100949.83
2022-08-31T09:56:17.367Z,100950.47
2022-08-31T09:59:03.090Z,100950.23
2022-08-31T10:01:45.340Z,100944.09
2022-08-31T10:04:28.304Z,100940.52
2022-08-31T10:07:06.815Z,100937.89
2022-08-31T10:09:47.485Z,100931.86
2022-08-31T10:12:42.215Z,100928.89
2022-08-31T10:15:26.031Z,100926.73
2022-08-31T10:18:12.118Z,100924.94
2022-08-31T10:20:51.078Z,100922.67
2022-08-31T10:23:36.524Z,100922.08
2022-08-31T10:26:13.811Z,100919.00
2022-08-31T10:28:54.564Z,100917.94
2022-08-31T10:31:51.327Z,100918.68
2022-08-31T10:34:53.140Z,100914.99
2022-08-31T10:37:32.667Z,100913.80
2022-08-31T10:40:10.286Z,100915.30
2022-08-31T10:42:45.320Z,100908.80
2022-08-31T10:45:18.802Z,100908.77
2022-08-31T10:47:51.000Z,100910.01
2022-08-31T10:50:45.610Z,100912.21
2022-08-31T10:53:34.965Z,100911.90
2022-08-31T10:56:36.069Z,100907.77
2022-08-31T10:59:17.428Z,100908.73
2022-08-31T11:01:57.482Z,100910.52
2022-08-31T11:04:33.529Z,100915.88
2022-08-31T11:07:36.119Z,100910.95
2022-08-31T11:10:20.371Z,100904.17
2022-08-31T11:12:57.859Z,100901.56
2022-08-31T11:15:50.639Z,100897.73
2022-08-31T11:18:52.275Z,100895.84
2022-08-31T11:21:54.960Z,100892.86
2022-08-31T11:24:37.742Z,100892.45
2022-08-31T11:27:12.214Z,100892.80
2022-08-31T11:29:58.871Z,100893.76
2022-08-31T11:32:35.827Z,100892.60
2022-08-31T11:35:10.723Z,100892.17
2022-08-31T11:37:53.561Z,100893.69
2022-08-31T11:40:58.065Z,100894.48
2022-08-31T11:43:33.000Z,100892.08
2022-08-31T11:46:27.356Z,100892.16
2022-08-31T11:48:56.381Z,100888.96
2022-08-31T11:51:38.693Z,100884.37
2022-08-31T11:54:24.683Z,100882.04
2022-08-31T11:56:57.260Z,100878.19
2022-08-31T11:59:32.617Z,100875.48
2022-08-31T12:02:21.811Z,100870.53
2022-08-31T12:04:52.794Z,100866.79
2022-08-31T12:07:37.098Z,100863.04
2022-08-31T12:10:27.760Z,100861.89
2022-08-31T12:13:07.815Z,100864.78
2022-08-31T12:16:12.713Z,100863.58
2022-08-31T12:19:03.249Z,100858.48
2022-08-31T12:21:59.589Z,100856.39
2022-08-31T12:24:49.465Z,100855.44
2022-08-31T12:27:44.690Z,100855.36
2022-08-31T12:30:21.992Z,100854.98
2022-08-31T12:33:11.853Z,100853.80
2022-08-31T12:35:41.047Z,100851.70
2022-08-31T12:38:18.340Z,100847.60
2022-08-31T12:40:58.231Z,100844.95
2022-08-31T12:43:36.289Z,100846.52
2022-08-31T12:46:05.330Z,100839.40
2022-08-31T12:48:57.523Z,100836.06
2022-08-31T12:51:47.007Z,100833.86
2022-08-31T12:54:31.235Z,100827.59
2022-08-31T12:57:03.045Z,100824.63
2022-08-31T13:00:00.111Z,100822.50
2022-08-31T13:02:33.943Z,100819.30
2022-08-31T13:05:17.095Z,100817.29
2022-08-31T13:07:45.988Z,100811.54
2022-08-31T13:10:25.218Z,100812.55
2022-08-31T13:12:57.680Z,100797.09
2022-08-31T13:15:42.970Z,100792.73
2022-08-31T13:18:38.392Z,100794.30
2022-08-31T13:21:08.928Z,100794.08
2022-08-31T13:23:48.570Z,100800.15
2022-08-31T13:26:25.748Z,100794.38
2022-08-31T13:28:58.685Z,100790.69
2022-08-31T13:31:40.519Z,100790.39
2022-08-31T13:34:09.313Z,100798.52
2022-08-31T13:36:51.719Z,100795.59
2022-08-31T13:39:30.241Z,100794.25
2022-08-31T13:42:12.837Z,100794.64
2022-08-31T13:44:44.640Z,100795.16
2022-08-31T13:47:22.339Z,100794.42
2022-08-31T13:49:59.947Z,100797.09
2022-08-31T13:52:31.151Z,100801.58
2022-08-31T13:55:04.489Z,100812.04
2022-08-31T13:57:36.317Z,100813.30
2022-08-31T14:00:36.951Z,100812.06
2022-08-31T14:03:32.383Z,100811.08
2022-08-31T14:06:26.337Z,100813.52
2022-08-31T14:09:17.349Z,100813.17
2022-08-31T14:12:01.751Z,100811.92
2022-08-31T14:14:40.422Z,100815.02
2022-08-31T14:17:18.013Z,100814.69
2022-08-31T14:19:47.347Z,100813.09
2022-08-31T14:22:30.530Z,100813.30
2022-08-31T14:25:01.290Z,100814.72
2022-08-31T14:27:30.794Z,100810.90
2022-08-31T14:30:00.811Z,100814.12
2022-08-31T14:32:31.466Z,100818.09
2022-08-31T14:35:01.658Z,100813.54
2022-08-31T14:37:32.031Z,100818.42
2022-08-31T14:40:07.097Z,100816.85
2022-08-31T14:42:39.730Z,100815.23
2022-08-31T14:45:11.509Z,100817.80
2022-08-31T14:47:44.343Z,100815.95
2022-08-31T14:50:18.714Z,100819.73
2022-08-31T14:52:58.946Z,100818.90
2022-08-31T14:55:32.938Z,100819.52
2022-08-31T14:58:08.686Z,100820.82
2022-08-31T15:00:44.224Z,100819.27
2022-08-31T15:03:15.591Z,100810.90
2022-08-31T15:05:44.676Z,100813.09
2022-08-31T15:08:13.877Z,100813.66
2022-08-31T15:10:42.907Z,100815.13
2022-08-31T15:13:12.069Z,100813.52
2022-08-31T15:15:43.798Z,100815.66
2022-08-31T15:18:15.338Z,100814.62
2022-08-31T15:20:44.427Z,100814.77
2022-08-31T15:23:13.573Z,100817.61
2022-08-31T15:25:44.414Z,100815.90
2022-08-31T15:28:14.825Z,100813.13
2022-08-31T15:30:43.729Z,100812.48
2022-08-31T15:33:12.873Z,100810.92
2022-08-31T15:35:43.597Z,100815.55
2022-08-31T15:38:12.615Z,100817.61
2022-08-31T15:40:42.452Z,100815.05
2022-08-31T15:43:16.278Z,100818.41
2022-08-31T15:45:45.450Z,100816.46
2022-08-31T15:48:33.208Z,100819.70
2022-08-31T15:51:02.406Z,100821.23
2022-08-31T15:53:32.573Z,100819.39
2022-08-31T15:56:08.524Z,100820.79
2022-08-31T15:58:40.686Z,100820.30
2022-08-31T16:01:16.531Z,100824.08
2022-08-31T16:03:57.329Z,100827.02
2022-08-31T16:06:35.229Z,100830.01
2022-08-31T16:09:05.182Z,100834.92
2022-08-31T16:11:40.288Z,100836.66
2022-08-31T16:14:14.520Z,100838.67
2022-08-31T16:16:46.998Z,100843.15
2022-08-31T16:19:33.672Z,100844.38
2022-08-31T16:22:06.667Z,100843.38
2022-08-31T16:24:37.560Z,100845.52
2022-08-31T16:27:15.884Z,100849.77
2022-08-31T16:29:47.541Z,100853.75
2022-08-31T16:32:16.918Z,100856.34
2022-08-31T16:34:46.273Z,100859.17
2022-08-31T16:37:15.241Z,100858.94
2022-08-31T16:39:47.354Z,100860.42
2022-08-31T16:42:17.869Z,100861.95
2022-08-31T16:44:48.082Z,100861.61
2022-08-31T16:47:19.024Z,100862.48
2022-08-31T16:49:48.746Z,100863.11
2022-08-31T16:52:24.500Z,100863.52
2022-08-31T16:58:51.118Z,100865.23
2022-08-31T17:01:24.744Z,100868.05
2022-08-31T17:03:56.276Z,100872.10
2022-08-31T17:06:31.143Z,100879.20
2022-08-31T17:09:04.334Z,100884.88
2022-08-31T17:11:38.078Z,100883.41
2022-08-31T17:14:09.060Z,100890.38
2022-08-31T17:16:39.844Z,100894.89
2022-08-31T17:19:11.960Z,100893.61
2022-08-31T17:21:50.950Z,100897.58
2022-08-31T17:24:24.589Z,100901.55
2022-08-31T17:26:59.729Z,100905.54
2022-08-31T17:29:34.226Z,100908.05
2022-08-31T17:32:17.308Z,100907.94
2022-08-31T17:34:51.870Z,100914.65
2022-08-31T17:37:27.974Z,100915.82
2022-08-31T17:39:56.890Z,100916.79
2022-08-31T17:42:27.451Z,100915.29
2022-08-31T17:44:58.329Z,100918.69
2022-08-31T17:47:27.277Z,100918.02
2022-08-31T17:49:56.015Z,100924.51
2022-08-31T17:52:24.864Z,100928.35
2022-08-31T17:54:53.781Z,100932.34
2022-08-31T17:57:26.738Z,100936.64
2022-08-31T17:59:55.965Z,100941.08
2022-08-31T18:02:32.833Z,100942.85
2022-08-31T18:05:03.226Z,100949.98
2022-08-31T18:07:41.340Z,100959.09
2022-08-31T18:10:10.643Z,100961.16
2022-08-31T18:12:42.191Z,100966.36
2022-08-31T18:15:14.082Z,100970.63
2022-08-31T18:17:43.563Z,100969.19
2022-08-31T18:20:12.851Z,100971.41
2022-08-31T18:22:41.502Z,100975.56
2022-08-31T18:25:10.916Z,100981.26
2022-08-31T18:27:39.735Z,100985.45
2022-08-31T18:30:10.156Z,100983.77
2022-08-31T18:32:38.801Z,100983.48
2022-08-31T18:35:17.986Z,100982.92
2022-08-31T18:37:47.190Z,100978.56
2022-08-31T18:40:34.714Z,100971.32
2022-08-31T18:43:22.184Z,100967.80
2022-08-31T18:45:51.486Z,100967.52
2022-08-31T18:48:26.277Z,100967.98
2022-08-31T18:50:59.373Z,100964.45
2022-08-31T18:53:30.443Z,100963.13
2022-08-31T18:56:08.031Z,100959.60
2022-08-31T18:58:38.128Z,100960.46
2022-08-31T19:01:11.653Z,100962.27
2022-08-31T19:03:42.151Z,100957.59
2022-08-31T19:06:24.193Z,100961.04
2022-08-31T19:08:53.438Z,100961.71
2022-08-31T19:11:23.634Z,100962.77
2022-08-31T19:13:56.967Z,100961.45
2022-08-31T19:16:29.207Z,100965.77
2022-08-31T19:18:59.048Z,100967.54
2022-08-31T19:21:30.943Z,100969.38
2022-08-31T19:24:01.742Z,100970.80
2022-08-31T19:26:39.525Z,100973.96
2022-08-31T19:29:11.562Z,100974.63
2022-08-31T19:31:44.677Z,100974.07
2022-08-31T19:34:20.173Z,100973.89
2022-08-31T19:36:53.980Z,100971.54
2022-08-31T19:39:28.175Z,100970.90
2022-08-31T19:42:00.107Z,100970.96
2022-08-31T19:44:29.343Z,100972.38
2022-08-31T19:47:25.227Z,100968.02
2022-08-31T19:49:54.162Z,100963.59
2022-08-31T19:52:24.688Z,100960.94
2022-08-31T19:54:53.473Z,100959.75
2022-08-31T19:57:22.962Z,100961.44
2022-08-31T19:59:51.668Z,100966.75
2022-08-31T20:02:22.498Z,100967.83
2022-08-31T20:04:51.403Z,100965.98
2022-08-31T20:07:26.944Z,100960.92
2022-08-31T20:09:58.503Z,100956.59
2022-08-31T20:12:27.330Z,100961.58
2022-08-31T20:14:55.971Z,100960.09
2022-08-31T20:17:24.766Z,100958.79
2022-08-31T20:19:55.320Z,100956.88
2022-08-31T20:22:26.167Z,100958.91
2022-08-31T20:25:01.986Z,100961.09
2022-08-31T20:27:38.158Z,100963.39
2022-08-31T20:30:08.397Z,100966.87
2022-08-31T20:32:37.054Z,100966.17
2022-08-31T20:35:07.079Z,100966.08
2022-08-31T20:37:35.859Z,100963.94
2022-08-31T20:40:04.921Z,100961.34
2022-08-31T20:42:33.644Z,100953.84
2022-08-31T20:45:05.009Z,100955.44
2022-08-31T20:47:54.058Z,100950.73
2022-08-31T20:50:22.794Z,100946.39
2022-08-31T20:52:51.738Z,100948.55
2022-08-31T20:55:20.736Z,100943.16
2022-08-31T20:57:51.061Z,100945.27
2022-08-31T21:00:20.166Z,100944.21
2022-08-31T21:02:50.246Z,100946.31
2022-08-31T21:05:38.429Z,100946.94
2022-08-31T21:08:08.028Z,100947.16
2022-08-31T21:10:39.092Z,100948.95
2022-08-31T21:13:11.038Z,100945.64
2022-08-31T21:15:42.153Z,100946.73
2022-08-31T21:18:12.094Z,100947.70
2022-08-31T21:20:41.013Z,100945.80
2022-08-31T21:23:10.895Z,100944.24
2022-08-31T21:25:45.355Z,100944.86
2022-08-31T21:28:18.080Z,100946.60
2022-08-31T21:30:50.323Z,100951.41
2022-08-31T21:33:19.441Z,100953.70
2022-08-31T21:35:48.359Z,100955.39
2022-08-31T21:38:18.584Z,100959.77
2022-08-31T21:40:49.441Z,100958.11
2022-08-31T21:43:19.018Z,100954.85
2022-08-31T21:45:55.166Z,100953.86
2022-08-31T21:48:26.019Z,100953.37
2022-08-31T21:50:55.597Z,100957.30
2022-08-31T21:53:26.159Z,100960.86
2022-08-31T21:55:55.053Z,100959.60
2022-08-31T21:58:24.084Z,100962.91
2022-08-31T22:00:52.934Z,100962.23
2022-08-31T22:03:22.853Z,100963.59
2022-08-31T22:05:51.746Z,100963.75
2022-08-31T22:08:20.894Z,100962.98
2022-08-31T22:10:49.424Z,100958.27
2022-08-31T22:13:18.540Z,100957.24
2022-08-31T22:15:48.364Z,100957.44
2022-08-31T22:21:07.306Z,100958.05
2022-08-31T22:23:35.995Z,100954.66
2022-08-31T22:26:04.914Z,100948.95
2022-08-31T22:28:35.078Z,100943.48
2022-08-31T22:31:04.679Z,100942.09
2022-08-31T22:33:33.406Z,100936.72
2022-08-31T22:36:02.226Z,100937.09
2022-08-31T22:38:31.052Z,100933.55
2022-08-31T22:41:10.020Z,100934.27
2022-08-31T22:43:40.098Z,100934.70
2022-08-31T22:46:13.930Z,100932.24
2022-08-31T22:48:42.624Z,100927.41
2022-08-31T22:51:13.259Z,100921.38
2022-08-31T22:53:45.132Z,100918.10
2022-08-31T22:56:19.501Z,100917.05
2022-08-31T22:58:49.372Z,100912.25
2022-08-31T23:01:23.347Z,100911.61
2022-08-31T23:03:54.069Z,100910.08
2022-08-31T23:06:23.816Z,100910.70
2022-08-31T23:08:54.426Z,100909.39
2022-08-31T23:11:24.992Z,100910.27
2022-08-31T23:13:57.627Z,100912.05
2022-08-31T23:16:29.988Z,100915.46
2022-08-31T23:19:05.478Z,100919.86
2022-08-31T23:21:35.211Z,100920.09
2022-08-31T23:24:05.001Z,100923.91
2022-08-31T23:26:33.480Z,100930.70
2022-08-31T23:29:05.849Z,100927.62
2022-08-31T23:31:35.962Z,100927.70
2022-08-31T23:34:09.993Z,100928.35
2022-08-31T23:36:41.023Z,100928.11
2022-08-31T23:39:10.019Z,100925.80
2022-08-31T23:41:39.212Z,100926.30
